createdAt,value
2023-03-13T00:00:51.256Z,5.23
2023-03-13T00:03:18.066Z,5.63
2023-03-13T00:05:45.601Z,5.87
2023-03-13T00:08:12.375Z,6.57
2023-03-13T00:10:39.979Z,4.90
2023-03-13T00:13:07.639Z,4.93
2023-03-13T00:15:35.025Z,5.57
2023-03-13T00:18:01.806Z,5.77
2023-03-13T00:20:28.630Z,5.20
2023-03-13T00:22:55.487Z,5.17
2023-03-13T00:25:22.325Z,4.73
2023-03-13T00:27:49.561Z,5.57
2023-03-13T00:30:16.508Z,5.73
2023-03-13T00:32:44.205Z,5.17
2023-03-13T00:35:10.995Z,5.37
2023-03-13T00:37:38.052Z,5.90
2023-03-13T00:40:05.765Z,5.60
2023-03-13T00:42:32.627Z,5.53
2023-03-13T00:44:59.466Z,5.47
2023-03-13T00:47:26.270Z,5.10
2023-03-13T00:49:53.141Z,5.30
2023-03-13T00:52:19.886Z,5.57
2023-03-13T00:54:46.771Z,5.67
2023-03-13T00:57:13.689Z,6.33
2023-03-13T00:59:41.130Z,5.10
2023-03-13T01:02:08.094Z,5.80
2023-03-13T01:04:35.020Z,5.00
2023-03-13T01:07:02.029Z,5.27
2023-03-13T01:09:28.896Z,5.70
2023-03-13T01:11:56.074Z,5.70
2023-03-13T01:14:22.957Z,6.33
2023-03-13T01:16:49.749Z,6.17
2023-03-13T01:19:17.071Z,5.67
2023-03-13T01:21:45.951Z,6.10
2023-03-13T01:24:13.839Z,5.93
2023-03-13T01:26:40.767Z,5.20
2023-03-13T01:29:07.746Z,5.67
2023-03-13T01:31:35.909Z,5.40
2023-03-13T01:34:06.262Z,5.70
2023-03-13T01:36:33.688Z,5.43
2023-03-13T01:39:01.084Z,6.03
2023-03-13T01:41:29.832Z,5.10
2023-03-13T01:43:57.031Z,6.03
2023-03-13T01:46:28.429Z,5.83
2023-03-13T01:49:01.368Z,6.30
2023-03-13T01:51:33.075Z,5.33
2023-03-13T01:54:06.681Z,5.03
2023-03-13T01:56:40.670Z,5.00
2023-03-13T01:59:09.120Z,5.53
2023-03-13T02:01:36.282Z,5.70
2023-03-13T02:04:05.539Z,5.47
2023-03-13T02:06:33.501Z,5.67
2023-03-13T02:09:03.287Z,4.97
2023-03-13T02:11:36.285Z,5.50
2023-03-13T02:14:04.991Z,5.83
2023-03-13T02:16:33.221Z,5.67
2023-03-13T02:19:00.834Z,5.97
2023-03-13T02:21:37.859Z,5.80
2023-03-13T02:24:12.267Z,6.40
2023-03-13T02:26:39.195Z,5.33
2023-03-13T02:29:05.986Z,5.87
2023-03-13T02:31:33.321Z,5.70
2023-03-13T02:34:01.064Z,5.60
2023-03-13T02:36:28.699Z,6.00
2023-03-13T02:38:57.969Z,5.50
2023-03-13T02:41:25.891Z,5.87
2023-03-13T02:43:54.474Z,5.63
2023-03-13T02:46:21.991Z,6.53
2023-03-13T02:48:53.954Z,6.07
2023-03-13T02:51:30.544Z,5.93
2023-03-13T02:54:03.917Z,5.67
2023-03-13T02:56:33.733Z,5.43
2023-03-13T02:59:01.363Z,5.73
2023-03-13T03:01:28.715Z,5.27
2023-03-13T03:03:56.508Z,6.10
2023-03-13T03:06:24.482Z,5.20
2023-03-13T03:08:51.529Z,5.77
2023-03-13T03:11:18.630Z,5.57
2023-03-13T03:13:49.791Z,5.67
2023-03-13T03:16:21.396Z,5.80
2023-03-13T03:18:48.265Z,5.63
2023-03-13T03:21:15.885Z,5.53
2023-03-13T03:23:42.830Z,5.90
2023-03-13T03:26:10.174Z,5.40
2023-03-13T03:28:37.266Z,5.40
2023-03-13T03:31:10.233Z,5.87
2023-03-13T03:33:37.892Z,5.70
2023-03-13T03:36:09.412Z,6.00
2023-03-13T03:38:36.392Z,6.13
2023-03-13T03:41:03.664Z,5.63
2023-03-13T03:43:31.374Z,5.77
2023-03-13T03:45:58.535Z,5.80
2023-03-13T03:48:26.274Z,6.10
2023-03-13T03:50:53.592Z,6.50
2023-03-13T03:53:21.500Z,5.83
2023-03-13T03:55:48.283Z,5.97
2023-03-13T03:58:15.706Z,6.50
2023-03-13T04:00:59.517Z,6.60
2023-03-13T04:03:27.483Z,6.60
2023-03-13T04:05:54.373Z,6.73
2023-03-13T04:08:23.544Z,6.27
2023-03-13T04:10:50.640Z,6.70
2023-03-13T04:13:20.830Z,6.87
2023-03-13T04:15:49.312Z,6.57
2023-03-13T04:18:17.284Z,7.73
2023-03-13T04:20:44.803Z,8.17
2023-03-13T04:23:12.723Z,7.50
2023-03-13T04:25:39.667Z,7.40
2023-03-13T04:28:09.710Z,6.60
2023-03-13T04:30:41.921Z,6.53
2023-03-13T04:33:22.336Z,6.80
2023-03-13T04:36:21.661Z,4.67
2023-03-13T04:39:07.006Z,6.60
2023-03-13T04:41:53.504Z,6.30
2023-03-13T04:44:46.502Z,6.53
2023-03-13T04:47:25.263Z,6.90
2023-03-13T04:50:15.179Z,6.73
2023-03-13T04:52:49.515Z,7.80
2023-03-13T04:55:35.723Z,6.60
2023-03-13T04:58:28.766Z,6.63
2023-03-13T05:01:18.410Z,6.87
2023-03-13T05:04:04.325Z,6.73
2023-03-13T05:06:56.992Z,7.50
2023-03-13T05:09:46.738Z,7.97
2023-03-13T05:12:39.888Z,7.10
2023-03-13T05:15:13.832Z,8.13
2023-03-13T05:17:46.718Z,7.07
2023-03-13T05:20:28.858Z,8.87
2023-03-13T05:23:06.806Z,8.97
2023-03-13T05:25:56.576Z,10.63
2023-03-13T05:28:32.178Z,9.47
2023-03-13T05:31:25.071Z,9.63
2023-03-13T05:34:00.562Z,9.53
2023-03-13T05:36:50.336Z,8.97
2023-03-13T05:39:37.539Z,8.30
2023-03-13T05:42:25.251Z,9.13
2023-03-13T05:45:18.150Z,9.03
2023-03-13T05:48:01.492Z,8.30
2023-03-13T05:50:48.645Z,9.97
2023-03-13T05:53:45.095Z,9.37
2023-03-13T05:56:38.210Z,9.50
2023-03-13T05:59:28.356Z,8.60
2023-03-13T06:02:11.535Z,8.50
2023-03-13T06:04:43.130Z,10.47
2023-03-13T06:07:10.333Z,8.27
2023-03-13T06:09:37.671Z,9.93
2023-03-13T06:12:04.692Z,9.03
2023-03-13T06:14:31.637Z,8.33
2023-03-13T06:17:18.454Z,8.03
2023-03-13T06:19:46.476Z,9.50
2023-03-13T06:22:13.357Z,8.70
2023-03-13T06:24:40.290Z,9.53
2023-03-13T06:27:07.705Z,10.70
2023-03-13T06:29:34.549Z,9.10
2023-03-13T06:32:01.441Z,7.87
2023-03-13T06:34:28.294Z,9.07
2023-03-13T06:36:55.146Z,9.00
2023-03-13T06:39:22.071Z,8.93
2023-03-13T06:41:48.826Z,9.10
2023-03-13T06:44:15.888Z,8.87
2023-03-13T06:46:42.908Z,9.43
2023-03-13T06:49:09.795Z,7.70
2023-03-13T06:51:36.595Z,8.73
2023-03-13T06:54:03.942Z,9.50
2023-03-13T06:56:30.792Z,8.97
2023-03-13T06:58:59.895Z,9.33
2023-03-13T07:01:27.032Z,8.03
2023-03-13T07:03:53.892Z,8.10
2023-03-13T07:06:20.831Z,8.43
2023-03-13T07:08:47.728Z,8.20
2023-03-13T07:11:14.897Z,8.27
2023-03-13T07:13:41.994Z,6.47
2023-03-13T07:16:10.433Z,7.57
2023-03-13T07:18:38.403Z,8.13
2023-03-13T07:21:05.672Z,7.07
2023-03-13T07:23:34.191Z,6.40
2023-03-13T07:26:05.416Z,7.63
2023-03-13T07:28:32.517Z,6.37
2023-03-13T07:31:10.820Z,7.23
2023-03-13T07:33:37.728Z,7.57
2023-03-13T07:36:04.972Z,6.00
2023-03-13T07:38:32.139Z,6.83
2023-03-13T07:40:59.106Z,6.60
2023-03-13T07:43:26.472Z,6.77
2023-03-13T07:46:12.937Z,7.13
2023-03-13T07:48:41.675Z,7.63
2023-03-13T07:51:11.564Z,7.20
2023-03-13T07:53:38.463Z,7.20
2023-03-13T07:56:06.795Z,7.43
2023-03-13T07:58:34.918Z,7.00
2023-03-13T08:01:02.090Z,6.50
2023-03-13T08:03:30.393Z,7.03
2023-03-13T08:05:58.284Z,6.67
2023-03-13T08:08:25.164Z,6.87
2023-03-13T08:10:52.002Z,7.53
2023-03-13T08:13:18.837Z,7.07
2023-03-13T08:15:45.660Z,6.60
2023-03-13T08:18:12.605Z,5.27
2023-03-13T08:20:39.367Z,6.20
2023-03-13T08:23:06.188Z,6.33
2023-03-13T08:25:33.228Z,6.20
2023-03-13T08:28:02.100Z,7.10
2023-03-13T08:30:29.306Z,6.77
2023-03-13T08:32:56.235Z,6.43
2023-03-13T08:35:23.084Z,6.60
2023-03-13T08:37:49.867Z,5.70
2023-03-13T08:40:16.849Z,6.13
2023-03-13T08:42:43.625Z,7.30
2023-03-13T08:45:10.808Z,6.23
2023-03-13T08:47:37.777Z,6.33
2023-03-13T08:50:04.792Z,5.40
2023-03-13T08:52:31.657Z,6.80
2023-03-13T08:54:58.542Z,6.90
2023-03-13T08:57:25.468Z,6.70
2023-03-13T08:59:52.335Z,6.73
2023-03-13T09:02:21.004Z,5.57
2023-03-13T09:04:48.778Z,5.30
2023-03-13T09:07:16.810Z,5.40
2023-03-13T09:09:43.913Z,5.47
2023-03-13T09:12:24.560Z,4.70
2023-03-13T09:14:55.163Z,5.83
2023-03-13T09:17:21.986Z,4.30
2023-03-13T09:19:59.726Z,4.90
2023-03-13T09:22:27.652Z,5.87
2023-03-13T09:24:54.423Z,6.70
2023-03-13T09:27:21.279Z,6.53
2023-03-13T09:29:48.108Z,6.53
2023-03-13T09:32:14.943Z,6.23
2023-03-13T09:34:41.869Z,6.37
2023-03-13T09:37:09.102Z,5.37
2023-03-13T09:39:35.900Z,6.10
2023-03-13T09:42:17.041Z,5.10
2023-03-13T09:44:47.033Z,5.37
2023-03-13T09:47:29.746Z,5.60
2023-03-13T09:49:58.399Z,5.73
2023-03-13T09:52:40.733Z,5.80
2023-03-13T09:55:07.796Z,5.40
2023-03-13T09:57:37.129Z,5.30
2023-03-13T10:00:13.165Z,4.77
2023-03-13T10:02:40.568Z,5.00
2023-03-13T10:05:21.361Z,4.13
2023-03-13T10:07:48.451Z,4.10
2023-03-13T10:10:18.250Z,5.03
2023-03-13T10:12:48.826Z,4.37
2023-03-13T10:15:18.719Z,4.50
2023-03-13T10:17:45.578Z,5.03
2023-03-13T10:20:12.391Z,4.70
2023-03-13T10:22:40.339Z,4.77
2023-03-13T10:25:11.375Z,4.17
2023-03-13T10:27:51.144Z,4.87
2023-03-13T10:30:21.286Z,5.33
2023-03-13T10:32:48.234Z,4.87
2023-03-13T10:35:25.252Z,3.93
2023-03-13T10:38:00.129Z,4.27
2023-03-13T10:40:28.487Z,5.07
2023-03-13T10:43:17.324Z,5.10
2023-03-13T10:45:44.527Z,4.90
2023-03-13T10:48:34.588Z,3.97
2023-03-13T10:51:02.494Z,2.90
2023-03-13T10:53:29.660Z,3.93
2023-03-13T10:56:17.821Z,4.13
2023-03-13T10:58:46.547Z,4.00
2023-03-13T11:01:22.676Z,3.27
2023-03-13T11:03:50.860Z,4.20
2023-03-13T11:06:28.608Z,3.30
2023-03-13T11:09:14.382Z,3.30
2023-03-13T11:11:48.758Z,3.13
2023-03-13T11:14:20.417Z,3.60
2023-03-13T11:17:00.191Z,3.57
2023-03-13T11:19:33.449Z,3.67
2023-03-13T11:22:03.303Z,3.63
2023-03-13T11:24:45.561Z,4.23
2023-03-13T11:27:30.556Z,2.80
2023-03-13T11:30:06.538Z,4.70
2023-03-13T11:32:43.638Z,3.93
2023-03-13T11:35:19.107Z,4.50
2023-03-13T11:37:46.540Z,4.00
2023-03-13T11:40:21.916Z,3.60
2023-03-13T11:43:06.507Z,4.03
2023-03-13T11:45:44.395Z,3.53
2023-03-13T11:48:21.072Z,3.03
2023-03-13T11:50:54.461Z,3.93
2023-03-13T11:53:27.460Z,3.53
2023-03-13T11:56:18.431Z,3.70
2023-03-13T11:58:51.466Z,3.93
2023-03-13T12:01:20.004Z,4.03
2023-03-13T12:04:02.000Z,4.07
2023-03-13T12:06:31.847Z,3.97
2023-03-13T12:09:04.675Z,3.67
2023-03-13T12:11:51.515Z,3.03
2023-03-13T12:14:31.845Z,3.87
2023-03-13T12:17:00.786Z,3.93
2023-03-13T12:19:31.177Z,4.20
2023-03-13T12:22:00.629Z,3.77
2023-03-13T12:24:27.966Z,4.27
2023-03-13T12:26:57.723Z,4.60
2023-03-13T12:29:33.501Z,4.53
2023-03-13T12:32:05.182Z,4.30
2023-03-13T12:34:39.373Z,4.50
2023-03-13T12:37:25.511Z,4.83
2023-03-13T12:39:56.061Z,5.67
2023-03-13T12:42:23.646Z,5.57
2023-03-13T12:44:51.086Z,6.27
2023-03-13T12:47:27.999Z,5.97
2023-03-13T12:49:55.018Z,6.20
2023-03-13T12:52:40.440Z,6.03
2023-03-13T12:55:26.438Z,6.00
2023-03-13T12:58:07.370Z,5.40
2023-03-13T13:00:35.683Z,5.30
2023-03-13T13:03:07.075Z,5.90
2023-03-13T13:05:33.950Z,7.20
2023-03-13T13:08:00.786Z,5.97
2023-03-13T13:10:28.165Z,6.90
2023-03-13T13:13:13.651Z,6.83
2023-03-13T13:15:48.881Z,5.90
2023-03-13T13:18:26.587Z,5.63
2023-03-13T13:21:03.229Z,5.03
2023-03-13T13:23:34.411Z,5.93
2023-03-13T13:26:20.334Z,4.47
2023-03-13T13:28:47.170Z,5.27
2023-03-13T13:31:33.195Z,4.30
2023-03-13T13:34:00.187Z,5.13
2023-03-13T13:36:28.451Z,4.77
2023-03-13T13:38:55.612Z,5.30
2023-03-13T13:41:26.340Z,4.47
2023-03-13T13:44:11.713Z,5.00
2023-03-13T13:46:44.439Z,5.40
2023-03-13T13:49:15.019Z,5.67
2023-03-13T13:51:43.994Z,6.03
2023-03-13T13:54:29.571Z,5.17
2023-03-13T13:56:58.402Z,5.50
2023-03-13T13:59:41.518Z,6.47
2023-03-13T14:02:10.127Z,5.33
2023-03-13T14:04:47.232Z,5.87
2023-03-13T14:07:17.846Z,7.43
2023-03-13T14:09:52.243Z,6.43
2023-03-13T14:12:25.209Z,6.93
2023-03-13T14:15:10.005Z,6.90
2023-03-13T14:17:41.259Z,6.47
2023-03-13T14:20:22.813Z,6.70
2023-03-13T14:22:51.276Z,5.57
2023-03-13T14:25:18.434Z,7.30
2023-03-13T14:27:46.382Z,6.53
2023-03-13T14:30:15.248Z,6.40
2023-03-13T14:32:43.266Z,6.97
2023-03-13T14:35:12.827Z,7.17
2023-03-13T14:37:44.795Z,7.40
2023-03-13T14:40:29.051Z,7.53
2023-03-13T14:42:57.828Z,6.50
2023-03-13T14:45:35.348Z,6.60
2023-03-13T14:48:12.847Z,7.07
2023-03-13T14:50:40.497Z,6.77
2023-03-13T14:53:21.460Z,7.10
2023-03-13T14:55:49.296Z,5.30
2023-03-13T14:58:27.797Z,5.93
2023-03-13T15:00:55.169Z,7.13
2023-03-13T15:03:25.816Z,6.73
2023-03-13T15:06:11.350Z,6.50
2023-03-13T15:08:42.559Z,6.13
2023-03-13T15:11:29.884Z,6.97
2023-03-13T15:13:57.321Z,4.97
2023-03-13T15:16:26.121Z,5.83
2023-03-13T15:18:53.905Z,6.87
2023-03-13T15:21:25.911Z,6.13
2023-03-13T15:24:11.004Z,6.13
2023-03-13T15:26:38.386Z,5.20
2023-03-13T15:29:05.572Z,6.20
2023-03-13T15:31:33.398Z,6.30
2023-03-13T15:34:01.330Z,6.40
2023-03-13T15:36:29.654Z,6.97
2023-03-13T15:38:56.511Z,6.70
2023-03-13T15:41:25.151Z,5.90
2023-03-13T15:43:53.426Z,5.73
2023-03-13T15:46:21.272Z,6.53
2023-03-13T15:48:49.148Z,5.97
2023-03-13T15:51:17.416Z,5.53
2023-03-13T15:53:46.681Z,6.60
2023-03-13T15:56:20.904Z,5.77
2023-03-13T15:58:49.095Z,4.50
2023-03-13T16:01:17.348Z,4.57
2023-03-13T16:03:44.301Z,5.93
2023-03-13T16:06:18.499Z,5.60
2023-03-13T16:08:46.138Z,4.47
2023-03-13T16:11:14.707Z,5.37
2023-03-13T16:13:42.178Z,5.53
2023-03-13T16:16:20.822Z,5.33
2023-03-13T16:18:52.564Z,5.43
2023-03-13T16:21:24.827Z,5.47
2023-03-13T16:23:52.024Z,5.97
2023-03-13T16:26:22.801Z,5.67
2023-03-13T16:28:50.251Z,5.53
2023-03-13T16:31:19.299Z,5.10
2023-03-13T16:33:47.104Z,5.50
2023-03-13T16:36:15.731Z,5.60
2023-03-13T16:38:42.680Z,6.73
2023-03-13T16:41:10.420Z,4.53
2023-03-13T16:43:37.353Z,5.57
2023-03-13T16:46:06.583Z,5.80
2023-03-13T16:48:33.526Z,5.83
2023-03-13T16:51:01.012Z,5.57
2023-03-13T16:53:27.810Z,5.90
2023-03-13T16:55:55.888Z,5.40
2023-03-13T16:58:22.759Z,5.60
2023-03-13T17:01:04.286Z,6.20
2023-03-13T17:03:31.691Z,5.80
2023-03-13T17:05:58.519Z,5.77
2023-03-13T17:08:25.361Z,6.23
2023-03-13T17:10:52.485Z,6.23
2023-03-13T17:13:20.606Z,4.67
2023-03-13T17:15:47.499Z,4.63
2023-03-13T17:18:14.311Z,5.40
2023-03-13T17:20:41.276Z,5.10
2023-03-13T17:23:09.807Z,5.03
2023-03-13T17:25:36.672Z,4.63
2023-03-13T17:28:03.632Z,5.87
2023-03-13T17:30:31.371Z,5.37
2023-03-13T17:32:59.232Z,6.73
2023-03-13T17:35:26.558Z,6.10
2023-03-13T17:37:53.396Z,5.47
2023-03-13T17:40:24.434Z,6.53
2023-03-13T17:42:51.695Z,5.27
2023-03-13T17:45:19.033Z,5.30
2023-03-13T17:47:46.121Z,5.87
2023-03-13T17:50:18.215Z,5.70
2023-03-13T17:52:45.019Z,4.10
2023-03-13T17:55:12.157Z,5.30
2023-03-13T17:57:39.211Z,4.47
2023-03-13T18:00:14.888Z,4.63
2023-03-13T18:02:41.812Z,5.00
2023-03-13T18:05:08.674Z,5.40
2023-03-13T18:07:35.639Z,5.17
2023-03-13T18:10:02.503Z,5.27
2023-03-13T18:12:29.342Z,4.33
2023-03-13T18:14:56.137Z,4.40
2023-03-13T18:17:23.788Z,4.90
2023-03-13T18:19:51.013Z,4.50
2023-03-13T18:22:19.046Z,5.60
2023-03-13T18:24:46.160Z,4.93
2023-03-13T18:27:17.302Z,5.77
2023-03-13T18:29:45.163Z,5.50
2023-03-13T18:32:15.804Z,5.57
2023-03-13T18:34:42.735Z,5.23
2023-03-13T18:37:24.708Z,5.43
2023-03-13T18:39:51.832Z,5.53
2023-03-13T18:42:18.750Z,5.67
2023-03-13T18:44:45.572Z,6.30
2023-03-13T18:47:13.704Z,5.60
2023-03-13T18:49:40.494Z,5.90
2023-03-13T18:52:07.749Z,6.40
2023-03-13T18:54:34.659Z,4.90
2023-03-13T18:57:01.595Z,6.30
2023-03-13T18:59:28.545Z,5.90
2023-03-13T19:01:55.401Z,5.23
2023-03-13T19:04:22.283Z,4.50
2023-03-13T19:06:49.237Z,5.00
2023-03-13T19:09:42.746Z,5.80
2023-03-13T19:12:06.949Z,5.93
2023-03-13T19:14:34.007Z,5.50
2023-03-13T19:17:00.878Z,4.13
2023-03-13T19:19:27.796Z,5.10
2023-03-13T19:21:57.303Z,5.93
2023-03-13T19:24:26.939Z,5.50
2023-03-13T19:26:58.811Z,5.20
2023-03-13T19:29:27.538Z,5.10
2023-03-13T19:31:59.351Z,5.20
2023-03-13T19:34:26.182Z,5.43
2023-03-13T19:36:53.660Z,5.17
2023-03-13T19:39:22.511Z,6.10
2023-03-13T19:41:49.615Z,5.13
2023-03-13T19:44:17.386Z,6.73
2023-03-13T19:46:44.503Z,5.70
2023-03-13T19:49:12.801Z,5.30
2023-03-13T19:51:39.878Z,5.87
2023-03-13T19:54:07.283Z,5.27
2023-03-13T19:56:34.542Z,5.27
2023-03-13T19:59:03.189Z,5.27
2023-03-13T20:01:30.073Z,5.10
2023-03-13T20:03:57.414Z,5.87
2023-03-13T20:06:25.854Z,5.00
2023-03-13T20:09:00.057Z,5.47
2023-03-13T20:11:27.635Z,5.53
2023-03-13T20:13:54.869Z,4.90
2023-03-13T20:16:22.270Z,5.37
2023-03-13T20:18:49.969Z,5.53
2023-03-13T20:21:17.068Z,5.30
2023-03-13T20:23:48.005Z,5.30
2023-03-13T20:26:15.721Z,5.50
2023-03-13T20:28:44.431Z,5.63
2023-03-13T20:31:11.797Z,5.37
2023-03-13T20:33:38.848Z,6.20
2023-03-13T20:36:07.231Z,6.20
2023-03-13T20:38:35.047Z,5.40
2023-03-13T20:41:01.928Z,6.07
2023-03-13T20:43:29.436Z,5.63
2023-03-13T20:45:56.277Z,5.43
2023-03-13T20:48:26.110Z,5.57
2023-03-13T20:50:53.806Z,5.00
2023-03-13T20:53:21.415Z,5.87
2023-03-13T20:55:48.776Z,5.90
2023-03-13T20:58:16.113Z,6.60
2023-03-13T21:00:43.720Z,5.67
2023-03-13T21:03:10.670Z,5.70
2023-03-13T21:05:41.284Z,4.83
2023-03-13T21:08:08.552Z,4.70
2023-03-13T21:10:36.587Z,5.10
2023-03-13T21:13:03.515Z,5.27
2023-03-13T21:15:30.676Z,5.27
2023-03-13T21:17:57.475Z,4.83
2023-03-13T21:20:24.840Z,4.77
2023-03-13T21:22:52.138Z,4.27
2023-03-13T21:25:18.991Z,4.87
2023-03-13T21:27:45.821Z,4.10
2023-03-13T21:30:14.687Z,4.67
2023-03-13T21:32:41.692Z,5.20
2023-03-13T21:35:09.414Z,4.90
2023-03-13T21:37:36.666Z,4.67
2023-03-13T21:40:06.052Z,4.27
2023-03-13T21:42:34.489Z,4.80
2023-03-13T21:45:01.403Z,4.70
2023-03-13T21:47:28.365Z,4.90
2023-03-13T21:49:56.065Z,5.27
2023-03-13T21:52:24.038Z,5.03
2023-03-13T21:54:54.047Z,5.03
2023-03-13T21:57:21.325Z,4.50
2023-03-13T21:59:48.947Z,4.30
2023-03-13T22:02:16.317Z,4.87
2023-03-13T22:04:43.276Z,4.13
2023-03-13T22:07:10.600Z,4.60
2023-03-13T22:09:38.580Z,5.63
2023-03-13T22:12:05.796Z,4.70
2023-03-13T22:14:33.288Z,4.37
2023-03-13T22:17:00.619Z,4.10
2023-03-13T22:19:28.211Z,4.60
2023-03-13T22:21:55.250Z,3.87
2023-03-13T22:24:22.965Z,4.67
2023-03-13T22:26:50.137Z,3.73
2023-03-13T22:29:17.056Z,4.33
2023-03-13T22:31:43.814Z,4.13
2023-03-13T22:34:11.169Z,3.90
2023-03-13T22:36:38.890Z,4.23
2023-03-13T22:39:06.330Z,3.47
2023-03-13T22:41:33.819Z,3.00
2023-03-13T22:44:01.002Z,3.60
2023-03-13T22:46:28.488Z,4.00
2023-03-13T22:48:55.307Z,3.43
2023-03-13T22:51:22.507Z,3.80
2023-03-13T22:53:50.016Z,4.50
2023-03-13T22:56:17.886Z,3.53
2023-03-13T22:58:45.171Z,4.50
2023-03-13T23:01:14.732Z,5.20
2023-03-13T23:03:42.377Z,3.77
2023-03-13T23:06:10.965Z,4.27
2023-03-13T23:08:38.195Z,3.43
2023-03-13T23:11:05.493Z,3.70
2023-03-13T23:13:32.729Z,4.73
2023-03-13T23:16:00.112Z,4.00
2023-03-13T23:18:27.932Z,4.00
2023-03-13T23:20:54.855Z,4.43
2023-03-13T23:23:21.913Z,4.87
2023-03-13T23:25:48.772Z,4.33
2023-03-13T23:28:15.684Z,4.37
2023-03-13T23:30:42.829Z,3.93
2023-03-13T23:33:09.593Z,3.40
2023-03-13T23:35:37.087Z,3.63
2023-03-13T23:38:04.030Z,3.57
2023-03-13T23:40:30.998Z,3.57
2023-03-13T23:42:57.818Z,4.13
2023-03-13T23:45:24.683Z,3.80
2023-03-13T23:47:52.835Z,4.30
2023-03-13T23:50:19.819Z,3.67
2023-03-13T23:52:46.813Z,4.83
2023-03-13T23:55:13.644Z,4.33
2023-03-13T23:57:40.616Z,4.23
